sensor_id;sensor_type;location;lat;lon;timestamp;temperature;humidity
40638;DHT22;26336;44.696;10.622;2022-10-31T00:01:38;16.10;99.90
40638;DHT22;26336;44.696;10.622;2022-10-31T00:04:42;16.00;99.90
40638;DHT22;26336;44.696;10.622;2022-10-31T00:07:46;16.00;99.90
40638;DHT22;26336;44.696;10.622;2022-10-31T00:10:50;16.00;99.90
40638;DHT22;26336;44.696;10.622;2022-10-31T00:13:54;16.00;99.90
40638;DHT22;26336;44.696;10.622;2022-10-31T00:16:58;16.00;99.90
40638;DHT22;26336;44.696;10.622;2022-10-31T00:20:03;16.00;99.90
40638;DHT22;26336;44.696;10.622;2022-10-31T00:23:07;16.00;99.90
40638;DHT22;26336;44.696;10.622;2022-10-31T00:26:11;16.00;99.90
40638;DHT22;26336;44.696;10.622;2022-10-31T00:29:15;15.90;99.90
40638;DHT22;26336;44.696;10.622;2022-10-31T00:32:19;15.90;99.90
40638;DHT22;26336;44.696;10.622;2022-10-31T00:35:22;15.90;99.90
40638;DHT22;26336;44.696;10.622;2022-10-31T00:38:26;15.90;99.90
40638;DHT22;26336;44.696;10.622;2022-10-31T00:41:30;15.80;99.90
40638;DHT22;26336;44.696;10.622;2022-10-31T00:44:34;15.80;99.90
40638;DHT22;26336;44.696;10.622;2022-10-31T00:47:37;15.80;99.90
40638;DHT22;26336;44.696;10.622;2022-10-31T00:50:41;15.80;99.90
40638;DHT22;26336;44.696;10.622;2022-10-31T00:53:46;15.80;99.90
40638;DHT22;26336;44.696;10.622;2022-10-31T00:56:50;15.80;99.90
40638;DHT22;26336;44.696;10.622;2022-10-31T00:59:54;15.80;99.90
40638;DHT22;26336;44.696;10.622;2022-10-31T01:02:58;15.80;99.90
40638;DHT22;26336;44.696;10.622;2022-10-31T01:06:11;15.70;99.90
40638;DHT22;26336;44.696;10.622;2022-10-31T01:09:15;15.70;99.90
40638;DHT22;26336;44.696;10.622;2022-10-31T01:12:19;15.70;99.90
40638;DHT22;26336;44.696;10.622;2022-10-31T01:15:23;15.70;99.90
40638;DHT22;26336;44.696;10.622;2022-10-31T01:18:28;15.70;99.90
40638;DHT22;26336;44.696;10.622;2022-10-31T01:21:32;15.60;99.90
40638;DHT22;26336;44.696;10.622;2022-10-31T01:24:36;15.70;99.90
40638;DHT22;26336;44.696;10.622;2022-10-31T01:27:40;15.60;99.90
40638;DHT22;26336;44.696;10.622;2022-10-31T01:30:44;15.60;99.90
40638;DHT22;26336;44.696;10.622;2022-10-31T01:33:49;15.60;99.90
40638;DHT22;26336;44.696;10.622;2022-10-31T01:36:53;15.50;99.90
40638;DHT22;26336;44.696;10.622;2022-10-31T01:39:57;15.40;99.90
40638;DHT22;26336;44.696;10.622;2022-10-31T01:43:00;15.50;99.90
40638;DHT22;26336;44.696;10.622;2022-10-31T01:46:04;15.50;99.90
40638;DHT22;26336;44.696;10.622;2022-10-31T01:49:13;15.40;99.90
40638;DHT22;26336;44.696;10.622;2022-10-31T01:52:26;15.50;99.90
40638;DHT22;26336;44.696;10.622;2022-10-31T01:55:34;15.40;99.90
40638;DHT22;26336;44.696;10.622;2022-10-31T01:58:40;15.40;99.90
40638;DHT22;26336;44.696;10.622;2022-10-31T02:01:44;15.40;99.90
40638;DHT22;26336;44.696;10.622;2022-10-31T02:04:47;15.40;99.90
40638;DHT22;26336;44.696;10.622;2022-10-31T02:08:26;15.40;99.90
40638;DHT22;26336;44.696;10.622;2022-10-31T02:11:34;15.40;99.90
40638;DHT22;26336;44.696;10.622;2022-10-31T02:14:39;15.40;99.90
40638;DHT22;26336;44.696;10.622;2022-10-31T02:17:44;15.40;99.90
40638;DHT22;26336;44.696;10.622;2022-10-31T02:24:23;15.40;99.90
40638;DHT22;26336;44.696;10.622;2022-10-31T02:34:44;15.30;99.90
40638;DHT22;26336;44.696;10.622;2022-10-31T02:38:13;15.30;99.90
40638;DHT22;26336;44.696;10.622;2022-10-31T02:44:49;15.20;99.90
40638;DHT22;26336;44.696;10.622;2022-10-31T02:48:00;15.20;99.90
40638;DHT22;26336;44.696;10.622;2022-10-31T02:51:05;15.20;99.90
40638;DHT22;26336;44.696;10.622;2022-10-31T02:54:22;15.20;99.90
40638;DHT22;26336;44.696;10.622;2022-10-31T02:57:31;15.20;99.90
40638;DHT22;26336;44.696;10.622;2022-10-31T03:00:45;15.20;99.90
40638;DHT22;26336;44.696;10.622;2022-10-31T03:10:55;15.10;99.90
40638;DHT22;26336;44.696;10.622;2022-10-31T03:14:14;15.10;99.90
40638;DHT22;26336;44.696;10.622;2022-10-31T03:17:29;15.10;99.90
40638;DHT22;26336;44.696;10.622;2022-10-31T03:20:56;15.10;99.90
40638;DHT22;26336;44.696;10.622;2022-10-31T03:24:01;15.10;99.90
40638;DHT22;26336;44.696;10.622;2022-10-31T03:27:10;15.10;99.90
40638;DHT22;26336;44.696;10.622;2022-10-31T03:30:17;15.00;99.90
40638;DHT22;26336;44.696;10.622;2022-10-31T03:33:35;15.00;99.90
40638;DHT22;26336;44.696;10.622;2022-10-31T03:36:40;15.00;99.90
40638;DHT22;26336;44.696;10.622;2022-10-31T03:39:47;15.00;99.90
40638;DHT22;26336;44.696;10.622;2022-10-31T03:43:13;15.00;99.90
40638;DHT22;26336;44.696;10.622;2022-10-31T03:46:19;14.90;99.90
40638;DHT22;26336;44.696;10.622;2022-10-31T03:49:23;14.90;99.90
40638;DHT22;26336;44.696;10.622;2022-10-31T03:56:02;14.90;99.90
40638;DHT22;26336;44.696;10.622;2022-10-31T03:59:34;14.90;99.90
40638;DHT22;26336;44.696;10.622;2022-10-31T04:02:40;14.90;99.90
40638;DHT22;26336;44.696;10.622;2022-10-31T04:05:47;14.90;99.90
40638;DHT22;26336;44.696;10.622;2022-10-31T04:08:56;14.90;99.90
40638;DHT22;26336;44.696;10.622;2022-10-31T04:12:01;14.80;99.90
40638;DHT22;26336;44.696;10.622;2022-10-31T04:15:30;14.90;99.90
40638;DHT22;26336;44.696;10.622;2022-10-31T04:18:37;14.80;99.90
40638;DHT22;26336;44.696;10.622;2022-10-31T04:21:40;14.80;99.90
40638;DHT22;26336;44.696;10.622;2022-10-31T04:24:47;14.80;99.90
40638;DHT22;26336;44.696;10.622;2022-10-31T04:27:53;14.80;99.90
40638;DHT22;26336;44.696;10.622;2022-10-31T04:30:57;14.80;99.90
40638;DHT22;26336;44.696;10.622;2022-10-31T04:34:01;14.80;99.90
40638;DHT22;26336;44.696;10.622;2022-10-31T04:37:08;14.80;99.90
40638;DHT22;26336;44.696;10.622;2022-10-31T04:40:12;14.80;99.90
40638;DHT22;26336;44.696;10.622;2022-10-31T04:43:35;14.80;99.90
40638;DHT22;26336;44.696;10.622;2022-10-31T04:46:39;14.80;99.90
40638;DHT22;26336;44.696;10.622;2022-10-31T04:49:44;14.70;99.90
40638;DHT22;26336;44.696;10.622;2022-10-31T04:52:50;14.70;99.90
40638;DHT22;26336;44.696;10.622;2022-10-31T04:55:58;14.70;99.90
40638;DHT22;26336;44.696;10.622;2022-10-31T04:59:13;14.70;99.90
40638;DHT22;26336;44.696;10.622;2022-10-31T05:02:24;14.80;99.90
40638;DHT22;26336;44.696;10.622;2022-10-31T05:05:32;14.70;99.90
40638;DHT22;26336;44.696;10.622;2022-10-31T05:08:40;14.50;99.90
40638;DHT22;26336;44.696;10.622;2022-10-31T05:11:45;14.50;99.90
40638;DHT22;26336;44.696;10.622;2022-10-31T05:15:08;14.50;99.90
40638;DHT22;26336;44.696;10.622;2022-10-31T05:18:40;14.50;99.90
40638;DHT22;26336;44.696;10.622;2022-10-31T05:22:10;14.50;99.90
40638;DHT22;26336;44.696;10.622;2022-10-31T05:25:15;14.50;99.90
40638;DHT22;26336;44.696;10.622;2022-10-31T05:28:19;14.50;99.90
40638;DHT22;26336;44.696;10.622;2022-10-31T05:31:23;14.50;99.90
40638;DHT22;26336;44.696;10.622;2022-10-31T05:34:29;14.50;99.90
40638;DHT22;26336;44.696;10.622;2022-10-31T05:37:54;14.50;99.90
40638;DHT22;26336;44.696;10.622;2022-10-31T05:40:58;14.50;99.90
40638;DHT22;26336;44.696;10.622;2022-10-31T05:44:05;14.50;99.90
40638;DHT22;26336;44.696;10.622;2022-10-31T05:47:15;14.50;99.90
40638;DHT22;26336;44.696;10.622;2022-10-31T05:50:38;14.50;99.90
40638;DHT22;26336;44.696;10.622;2022-10-31T05:53:48;14.40;99.90
40638;DHT22;26336;44.696;10.622;2022-10-31T05:56:52;14.40;99.90
40638;DHT22;26336;44.696;10.622;2022-10-31T05:59:56;14.40;99.90
40638;DHT22;26336;44.696;10.622;2022-10-31T06:03:05;14.40;99.90
40638;DHT22;26336;44.696;10.622;2022-10-31T06:06:18;14.30;99.90
40638;DHT22;26336;44.696;10.622;2022-10-31T06:09:23;14.30;99.90
40638;DHT22;26336;44.696;10.622;2022-10-31T06:12:27;14.20;99.90
40638;DHT22;26336;44.696;10.622;2022-10-31T06:15:56;14.20;99.90
40638;DHT22;26336;44.696;10.622;2022-10-31T06:19:05;14.30;99.90
40638;DHT22;26336;44.696;10.622;2022-10-31T06:22:09;14.30;99.90
40638;DHT22;26336;44.696;10.622;2022-10-31T06:25:15;14.30;99.90
40638;DHT22;26336;44.696;10.622;2022-10-31T06:28:25;14.30;99.90
40638;DHT22;26336;44.696;10.622;2022-10-31T06:31:33;14.30;99.90
40638;DHT22;26336;44.696;10.622;2022-10-31T06:34:38;14.30;99.90
40638;DHT22;26336;44.696;10.622;2022-10-31T06:37:42;14.30;99.90
40638;DHT22;26336;44.696;10.622;2022-10-31T06:41:05;14.30;99.90
40638;DHT22;26336;44.696;10.622;2022-10-31T06:44:19;14.30;99.90
40638;DHT22;26336;44.696;10.622;2022-10-31T06:47:32;14.30;99.90
40638;DHT22;26336;44.696;10.622;2022-10-31T06:50:43;14.30;99.90
40638;DHT22;26336;44.696;10.622;2022-10-31T06:53:47;14.40;99.90
40638;DHT22;26336;44.696;10.622;2022-10-31T06:56:53;14.40;99.90
40638;DHT22;26336;44.696;10.622;2022-10-31T06:59:57;14.40;99.90
40638;DHT22;26336;44.696;10.622;2022-10-31T07:03:15;14.50;99.90
40638;DHT22;26336;44.696;10.622;2022-10-31T07:06:21;14.50;99.90
40638;DHT22;26336;44.696;10.622;2022-10-31T07:09:26;14.60;99.90
40638;DHT22;26336;44.696;10.622;2022-10-31T07:12:31;14.50;99.90
40638;DHT22;26336;44.696;10.622;2022-10-31T07:15:37;14.60;99.90
40638;DHT22;26336;44.696;10.622;2022-10-31T07:18:42;14.60;99.90
40638;DHT22;26336;44.696;10.622;2022-10-31T07:21:49;14.70;99.90
40638;DHT22;26336;44.696;10.622;2022-10-31T07:24:54;14.70;99.90
40638;DHT22;26336;44.696;10.622;2022-10-31T07:28:21;14.80;99.90
40638;DHT22;26336;44.696;10.622;2022-10-31T07:31:28;14.80;99.90
40638;DHT22;26336;44.696;10.622;2022-10-31T07:34:55;14.90;99.90
40638;DHT22;26336;44.696;10.622;2022-10-31T07:38:09;14.90;99.90
40638;DHT22;26336;44.696;10.622;2022-10-31T07:41:13;15.00;99.90
40638;DHT22;26336;44.696;10.622;2022-10-31T07:44:20;15.10;99.90
40638;DHT22;26336;44.696;10.622;2022-10-31T07:47:49;15.20;99.90
40638;DHT22;26336;44.696;10.622;2022-10-31T07:51:13;15.30;99.90
40638;DHT22;26336;44.696;10.622;2022-10-31T07:54:36;15.40;99.90
40638;DHT22;26336;44.696;10.622;2022-10-31T07:57:40;15.50;99.90
40638;DHT22;26336;44.696;10.622;2022-10-31T08:00:46;15.60;99.90
40638;DHT22;26336;44.696;10.622;2022-10-31T08:03:53;15.70;99.90
40638;DHT22;26336;44.696;10.622;2022-10-31T08:07:16;15.90;99.90
40638;DHT22;26336;44.696;10.622;2022-10-31T08:10:50;16.00;99.90
40638;DHT22;26336;44.696;10.622;2022-10-31T08:14:18;16.20;99.90
40638;DHT22;26336;44.696;10.622;2022-10-31T08:17:22;16.30;99.90
40638;DHT22;26336;44.696;10.622;2022-10-31T08:20:32;16.50;99.90
40638;DHT22;26336;44.696;10.622;2022-10-31T08:23:36;16.60;99.90
40638;DHT22;26336;44.696;10.622;2022-10-31T08:26:40;16.80;99.90
40638;DHT22;26336;44.696;10.622;2022-10-31T08:29:47;16.90;99.90
40638;DHT22;26336;44.696;10.622;2022-10-31T08:36:23;17.10;99.90
40638;DHT22;26336;44.696;10.622;2022-10-31T08:39:47;17.30;99.90
40638;DHT22;26336;44.696;10.622;2022-10-31T08:43:21;17.30;99.90
40638;DHT22;26336;44.696;10.622;2022-10-31T08:46:25;17.40;99.90
40638;DHT22;26336;44.696;10.622;2022-10-31T08:49:31;17.40;99.90
40638;DHT22;26336;44.696;10.622;2022-10-31T08:52:35;17.50;99.90
40638;DHT22;26336;44.696;10.622;2022-10-31T08:55:41;17.50;99.90
40638;DHT22;26336;44.696;10.622;2022-10-31T08:59:00;17.50;99.90
40638;DHT22;26336;44.696;10.622;2022-10-31T09:02:22;17.50;99.90
40638;DHT22;26336;44.696;10.622;2022-10-31T09:05:28;17.60;99.90
40638;DHT22;26336;44.696;10.622;2022-10-31T09:08:35;17.70;99.90
40638;DHT22;26336;44.696;10.622;2022-10-31T09:11:42;17.80;99.90
40638;DHT22;26336;44.696;10.622;2022-10-31T09:14:47;17.80;99.90
40638;DHT22;26336;44.696;10.622;2022-10-31T09:18:02;17.80;99.90
40638;DHT22;26336;44.696;10.622;2022-10-31T09:21:11;17.90;99.90
40638;DHT22;26336;44.696;10.622;2022-10-31T09:24:18;17.90;99.90
40638;DHT22;26336;44.696;10.622;2022-10-31T09:27:22;18.00;99.90
40638;DHT22;26336;44.696;10.622;2022-10-31T09:30:31;18.00;99.90
40638;DHT22;26336;44.696;10.622;2022-10-31T09:33:36;18.00;99.90
40638;DHT22;26336;44.696;10.622;2022-10-31T09:37:00;18.10;99.90
40638;DHT22;26336;44.696;10.622;2022-10-31T09:40:05;18.10;99.90
40638;DHT22;26336;44.696;10.622;2022-10-31T09:47:00;18.20;99.90
40638;DHT22;26336;44.696;10.622;2022-10-31T09:51:20;18.20;99.90
40638;DHT22;26336;44.696;10.622;2022-10-31T09:54:37;18.30;99.90
40638;DHT22;26336;44.696;10.622;2022-10-31T09:57:44;18.30;99.90
40638;DHT22;26336;44.696;10.622;2022-10-31T10:00:49;18.30;99.90
40638;DHT22;26336;44.696;10.622;2022-10-31T10:03:57;18.40;99.90
40638;DHT22;26336;44.696;10.622;2022-10-31T10:21:45;18.50;99.90
40638;DHT22;26336;44.696;10.622;2022-10-31T10:25:23;18.50;99.90
40638;DHT22;26336;44.696;10.622;2022-10-31T10:28:30;18.60;99.90
40638;DHT22;26336;44.696;10.622;2022-10-31T10:31:42;18.70;99.90
40638;DHT22;26336;44.696;10.622;2022-10-31T10:34:58;18.70;99.90
40638;DHT22;26336;44.696;10.622;2022-10-31T10:41:31;18.80;99.90
40638;DHT22;26336;44.696;10.622;2022-10-31T10:44:45;18.80;99.90
40638;DHT22;26336;44.696;10.622;2022-10-31T10:48:24;18.80;99.90
40638;DHT22;26336;44.696;10.622;2022-10-31T10:58:20;18.90;99.90
40638;DHT22;26336;44.696;10.622;2022-10-31T11:01:28;19.00;99.90
40638;DHT22;26336;44.696;10.622;2022-10-31T11:04:38;19.00;99.90
40638;DHT22;26336;44.696;10.622;2022-10-31T11:07:43;19.10;99.90
40638;DHT22;26336;44.696;10.622;2022-10-31T11:11:18;19.10;99.90
40638;DHT22;26336;44.696;10.622;2022-10-31T11:14:19;19.20;99.90
40638;DHT22;26336;44.696;10.622;2022-10-31T11:17:32;19.20;99.90
40638;DHT22;26336;44.696;10.622;2022-10-31T11:20:37;19.30;99.90
40638;DHT22;26336;44.696;10.622;2022-10-31T11:23:41;19.30;99.90
40638;DHT22;26336;44.696;10.622;2022-10-31T11:26:48;19.30;99.90
40638;DHT22;26336;44.696;10.622;2022-10-31T11:29:52;19.30;99.90
40638;DHT22;26336;44.696;10.622;2022-10-31T11:33:35;19.30;99.90
40638;DHT22;26336;44.696;10.622;2022-10-31T11:36:43;19.30;99.90
40638;DHT22;26336;44.696;10.622;2022-10-31T11:39:56;19.30;99.90
40638;DHT22;26336;44.696;10.622;2022-10-31T11:43:01;19.40;99.90
40638;DHT22;26336;44.696;10.622;2022-10-31T11:46:15;19.40;99.90
40638;DHT22;26336;44.696;10.622;2022-10-31T11:49:37;19.50;99.90
40638;DHT22;26336;44.696;10.622;2022-10-31T11:52:41;19.50;99.90
40638;DHT22;26336;44.696;10.622;2022-10-31T11:55:46;19.50;99.90
40638;DHT22;26336;44.696;10.622;2022-10-31T12:02:30;19.50;99.90
40638;DHT22;26336;44.696;10.622;2022-10-31T12:05:34;19.50;99.90
40638;DHT22;26336;44.696;10.622;2022-10-31T12:08:40;19.60;99.90
40638;DHT22;26336;44.696;10.622;2022-10-31T12:12:10;19.60;99.90
40638;DHT22;26336;44.696;10.622;2022-10-31T12:25:36;19.60;99.90
40638;DHT22;26336;44.696;10.622;2022-10-31T12:32:25;19.80;99.90
40638;DHT22;26336;44.696;10.622;2022-10-31T12:39:12;19.80;99.90
40638;DHT22;26336;44.696;10.622;2022-10-31T12:45:58;19.80;99.90
40638;DHT22;26336;44.696;10.622;2022-10-31T12:56:10;19.90;99.90
40638;DHT22;26336;44.696;10.622;2022-10-31T13:00:10;19.90;99.90
40638;DHT22;26336;44.696;10.622;2022-10-31T13:06:33;19.90;99.90
40638;DHT22;26336;44.696;10.622;2022-10-31T13:09:51;20.00;99.90
40638;DHT22;26336;44.696;10.622;2022-10-31T13:13:05;20.00;99.90
40638;DHT22;26336;44.696;10.622;2022-10-31T13:16:11;20.10;99.90
40638;DHT22;26336;44.696;10.622;2022-10-31T13:19:33;20.10;99.90
40638;DHT22;26336;44.696;10.622;2022-10-31T13:22:42;20.10;99.90
40638;DHT22;26336;44.696;10.622;2022-10-31T13:25:59;20.00;99.90
40638;DHT22;26336;44.696;10.622;2022-10-31T13:32:16;20.00;99.90
40638;DHT22;26336;44.696;10.622;2022-10-31T13:38:53;19.90;99.90
40638;DHT22;26336;44.696;10.622;2022-10-31T13:45:16;19.90;99.90
40638;DHT22;26336;44.696;10.622;2022-10-31T13:51:33;20.00;99.90
40638;DHT22;26336;44.696;10.622;2022-10-31T13:54:50;20.00;99.90
40638;DHT22;26336;44.696;10.622;2022-10-31T13:57:59;20.10;99.90
40638;DHT22;26336;44.696;10.622;2022-10-31T14:04:20;20.20;99.90
40638;DHT22;26336;44.696;10.622;2022-10-31T14:07:26;20.20;99.90
40638;DHT22;26336;44.696;10.622;2022-10-31T14:10:47;20.20;99.90
40638;DHT22;26336;44.696;10.622;2022-10-31T14:13:54;20.20;99.90
40638;DHT22;26336;44.696;10.622;2022-10-31T14:17:00;20.20;99.90
40638;DHT22;26336;44.696;10.622;2022-10-31T14:26:36;20.10;99.90
40638;DHT22;26336;44.696;10.622;2022-10-31T14:29:40;20.00;99.90
40638;DHT22;26336;44.696;10.622;2022-10-31T14:32:44;20.00;99.90
40638;DHT22;26336;44.696;10.622;2022-10-31T14:35:58;20.00;99.90
40638;DHT22;26336;44.696;10.622;2022-10-31T14:39:13;20.00;99.90
40638;DHT22;26336;44.696;10.622;2022-10-31T14:42:33;19.90;99.90
40638;DHT22;26336;44.696;10.622;2022-10-31T14:45:46;19.90;99.90
40638;DHT22;26336;44.696;10.622;2022-10-31T14:52:02;19.90;99.90
40638;DHT22;26336;44.696;10.622;2022-10-31T14:55:11;19.80;99.90
40638;DHT22;26336;44.696;10.622;2022-10-31T14:58:28;19.80;99.90
40638;DHT22;26336;44.696;10.622;2022-10-31T15:01:38;19.80;99.90
40638;DHT22;26336;44.696;10.622;2022-10-31T15:04:44;19.80;99.90
40638;DHT22;26336;44.696;10.622;2022-10-31T15:07:57;19.70;99.90
40638;DHT22;26336;44.696;10.622;2022-10-31T15:11:23;19.70;99.90
40638;DHT22;26336;44.696;10.622;2022-10-31T15:14:30;19.70;99.90
40638;DHT22;26336;44.696;10.622;2022-10-31T15:17:34;19.60;99.90
40638;DHT22;26336;44.696;10.622;2022-10-31T15:20:45;19.60;99.90
40638;DHT22;26336;44.696;10.622;2022-10-31T15:23:52;19.60;99.90
40638;DHT22;26336;44.696;10.622;2022-10-31T15:26:56;19.50;99.90
40638;DHT22;26336;44.696;10.622;2022-10-31T15:30:01;19.50;99.90
40638;DHT22;26336;44.696;10.622;2022-10-31T15:33:20;19.40;99.90
40638;DHT22;26336;44.696;10.622;2022-10-31T15:36:25;19.40;99.90
40638;DHT22;26336;44.696;10.622;2022-10-31T15:39:29;19.30;99.90
40638;DHT22;26336;44.696;10.622;2022-10-31T15:42:39;19.30;99.90
40638;DHT22;26336;44.696;10.622;2022-10-31T15:45:43;19.30;99.90
40638;DHT22;26336;44.696;10.622;2022-10-31T15:48:47;19.30;99.90
40638;DHT22;26336;44.696;10.622;2022-10-31T15:51:52;19.30;99.90
40638;DHT22;26336;44.696;10.622;2022-10-31T15:55:00;19.20;99.90
40638;DHT22;26336;44.696;10.622;2022-10-31T15:58:11;19.20;99.90
40638;DHT22;26336;44.696;10.622;2022-10-31T16:01:29;19.10;99.90
40638;DHT22;26336;44.696;10.622;2022-10-31T16:04:33;19.20;99.90
40638;DHT22;26336;44.696;10.622;2022-10-31T16:07:37;19.10;99.90
40638;DHT22;26336;44.696;10.622;2022-10-31T16:10:52;19.10;99.90
40638;DHT22;26336;44.696;10.622;2022-10-31T16:17:02;19.00;99.90
40638;DHT22;26336;44.696;10.622;2022-10-31T16:20:06;18.90;99.90
40638;DHT22;26336;44.696;10.622;2022-10-31T16:23:16;18.90;99.90
40638;DHT22;26336;44.696;10.622;2022-10-31T16:26:21;18.90;99.90
40638;DHT22;26336;44.696;10.622;2022-10-31T16:29:36;18.90;99.90
40638;DHT22;26336;44.696;10.622;2022-10-31T16:32:56;18.90;99.90
40638;DHT22;26336;44.696;10.622;2022-10-31T16:39:31;18.90;99.90
40638;DHT22;26336;44.696;10.622;2022-10-31T16:42:35;18.90;99.90
40638;DHT22;26336;44.696;10.622;2022-10-31T16:45:47;18.80;99.90
40638;DHT22;26336;44.696;10.622;2022-10-31T16:48:52;18.80;99.90
40638;DHT22;26336;44.696;10.622;2022-10-31T16:51:56;18.80;99.90
40638;DHT22;26336;44.696;10.622;2022-10-31T16:55:00;18.80;99.90
40638;DHT22;26336;44.696;10.622;2022-10-31T16:58:04;18.70;99.90
40638;DHT22;26336;44.696;10.622;2022-10-31T17:01:13;18.70;99.90
40638;DHT22;26336;44.696;10.622;2022-10-31T17:04:17;18.70;99.90
40638;DHT22;26336;44.696;10.622;2022-10-31T17:07:21;18.70;99.90
40638;DHT22;26336;44.696;10.622;2022-10-31T17:10:26;18.70;99.90
40638;DHT22;26336;44.696;10.622;2022-10-31T17:13:31;18.70;99.90
40638;DHT22;26336;44.696;10.622;2022-10-31T17:16:37;18.60;99.90
40638;DHT22;26336;44.696;10.622;2022-10-31T17:19:41;18.60;99.90
40638;DHT22;26336;44.696;10.622;2022-10-31T17:22:45;18.60;99.90
40638;DHT22;26336;44.696;10.622;2022-10-31T17:25:49;18.60;99.90
40638;DHT22;26336;44.696;10.622;2022-10-31T17:28:53;18.50;99.90
40638;DHT22;26336;44.696;10.622;2022-10-31T17:31:58;18.50;99.90
40638;DHT22;26336;44.696;10.622;2022-10-31T17:35:02;18.50;99.90
40638;DHT22;26336;44.696;10.622;2022-10-31T17:38:06;18.50;99.90
40638;DHT22;26336;44.696;10.622;2022-10-31T17:41:10;18.50;99.90
40638;DHT22;26336;44.696;10.622;2022-10-31T17:44:15;18.40;99.90
40638;DHT22;26336;44.696;10.622;2022-10-31T17:47:21;18.40;99.90
40638;DHT22;26336;44.696;10.622;2022-10-31T17:50:26;18.30;99.90
40638;DHT22;26336;44.696;10.622;2022-10-31T17:53:31;18.30;99.90
40638;DHT22;26336;44.696;10.622;2022-10-31T17:56:36;18.30;99.90
40638;DHT22;26336;44.696;10.622;2022-10-31T17:59:40;18.20;99.90
40638;DHT22;26336;44.696;10.622;2022-10-31T18:02:47;18.20;99.90
40638;DHT22;26336;44.696;10.622;2022-10-31T18:05:56;18.20;99.90
40638;DHT22;26336;44.696;10.622;2022-10-31T18:09:05;18.20;99.90
40638;DHT22;26336;44.696;10.622;2022-10-31T18:12:09;18.20;99.90
40638;DHT22;26336;44.696;10.622;2022-10-31T18:15:14;18.20;99.90
40638;DHT22;26336;44.696;10.622;2022-10-31T18:18:18;18.10;99.90
40638;DHT22;26336;44.696;10.622;2022-10-31T18:21:23;18.00;99.90
40638;DHT22;26336;44.696;10.622;2022-10-31T18:24:27;18.00;99.90
40638;DHT22;26336;44.696;10.622;2022-10-31T18:27:31;18.00;99.90
40638;DHT22;26336;44.696;10.622;2022-10-31T18:30:39;18.00;99.90
40638;DHT22;26336;44.696;10.622;2022-10-31T18:33:44;18.00;99.90
40638;DHT22;26336;44.696;10.622;2022-10-31T18:36:48;18.00;99.90
40638;DHT22;26336;44.696;10.622;2022-10-31T18:39:52;17.90;99.90
40638;DHT22;26336;44.696;10.622;2022-10-31T18:42:56;17.90;99.90
40638;DHT22;26336;44.696;10.622;2022-10-31T18:46:05;17.90;99.90
40638;DHT22;26336;44.696;10.622;2022-10-31T18:49:09;17.80;99.90
40638;DHT22;26336;44.696;10.622;2022-10-31T18:52:13;17.80;99.90
40638;DHT22;26336;44.696;10.622;2022-10-31T18:55:17;17.80;99.90
40638;DHT22;26336;44.696;10.622;2022-10-31T18:58:21;17.70;99.90
40638;DHT22;26336;44.696;10.622;2022-10-31T19:01:25;17.70;99.90
40638;DHT22;26336;44.696;10.622;2022-10-31T19:04:29;17.70;99.90
40638;DHT22;26336;44.696;10.622;2022-10-31T19:07:33;17.60;99.90
40638;DHT22;26336;44.696;10.622;2022-10-31T19:10:38;17.60;99.90
40638;DHT22;26336;44.696;10.622;2022-10-31T19:13:42;17.60;99.90
40638;DHT22;26336;44.696;10.622;2022-10-31T19:16:47;17.50;99.90
40638;DHT22;26336;44.696;10.622;2022-10-31T19:19:51;17.40;99.90
40638;DHT22;26336;44.696;10.622;2022-10-31T19:22:55;17.40;99.90
40638;DHT22;26336;44.696;10.622;2022-10-31T19:25:59;17.40;99.90
40638;DHT22;26336;44.696;10.622;2022-10-31T19:29:08;17.30;99.90
40638;DHT22;26336;44.696;10.622;2022-10-31T19:32:12;17.30;99.90
40638;DHT22;26336;44.696;10.622;2022-10-31T19:35:16;17.30;99.90
40638;DHT22;26336;44.696;10.622;2022-10-31T19:38:20;17.30;99.90
40638;DHT22;26336;44.696;10.622;2022-10-31T19:41:26;17.30;99.90
40638;DHT22;26336;44.696;10.622;2022-10-31T19:44:32;17.30;99.90
40638;DHT22;26336;44.696;10.622;2022-10-31T19:47:36;17.30;99.90
40638;DHT22;26336;44.696;10.622;2022-10-31T19:50:40;17.30;99.90
40638;DHT22;26336;44.696;10.622;2022-10-31T19:53:44;17.20;99.90
40638;DHT22;26336;44.696;10.622;2022-10-31T19:56:48;17.20;99.90
40638;DHT22;26336;44.696;10.622;2022-10-31T19:59:52;17.20;99.90
40638;DHT22;26336;44.696;10.622;2022-10-31T20:02:58;17.20;99.90
40638;DHT22;26336;44.696;10.622;2022-10-31T20:06:03;17.20;99.90
40638;DHT22;26336;44.696;10.622;2022-10-31T20:09:09;17.10;99.90
40638;DHT22;26336;44.696;10.622;2022-10-31T20:12:16;17.10;99.90
40638;DHT22;26336;44.696;10.622;2022-10-31T20:15:20;17.00;99.90
40638;DHT22;26336;44.696;10.622;2022-10-31T20:18:24;16.90;99.90
40638;DHT22;26336;44.696;10.622;2022-10-31T20:21:29;16.80;99.90
40638;DHT22;26336;44.696;10.622;2022-10-31T20:24:33;16.80;99.90
40638;DHT22;26336;44.696;10.622;2022-10-31T20:27:37;16.80;99.90
40638;DHT22;26336;44.696;10.622;2022-10-31T20:30:41;16.80;99.90
40638;DHT22;26336;44.696;10.622;2022-10-31T20:33:46;16.80;99.90
40638;DHT22;26336;44.696;10.622;2022-10-31T20:36:50;16.80;99.90
40638;DHT22;26336;44.696;10.622;2022-10-31T20:39:53;16.80;99.90
40638;DHT22;26336;44.696;10.622;2022-10-31T20:42:58;16.80;99.90
40638;DHT22;26336;44.696;10.622;2022-10-31T20:46:05;16.80;99.90
40638;DHT22;26336;44.696;10.622;2022-10-31T20:49:09;16.80;99.90
40638;DHT22;26336;44.696;10.622;2022-10-31T20:52:13;16.80;99.90
40638;DHT22;26336;44.696;10.622;2022-10-31T20:55:17;16.70;99.90
40638;DHT22;26336;44.696;10.622;2022-10-31T20:58:22;16.70;99.90
40638;DHT22;26336;44.696;10.622;2022-10-31T21:01:28;16.70;99.90
40638;DHT22;26336;44.696;10.622;2022-10-31T21:04:32;16.70;99.90
40638;DHT22;26336;44.696;10.622;2022-10-31T21:07:36;16.70;99.90
40638;DHT22;26336;44.696;10.622;2022-10-31T21:10:41;16.70;99.90
40638;DHT22;26336;44.696;10.622;2022-10-31T21:13:45;16.70;99.90
40638;DHT22;26336;44.696;10.622;2022-10-31T21:16:50;16.60;99.90
40638;DHT22;26336;44.696;10.622;2022-10-31T21:19:54;16.60;99.90
40638;DHT22;26336;44.696;10.622;2022-10-31T21:22:58;16.50;99.90
40638;DHT22;26336;44.696;10.622;2022-10-31T21:26:14;16.40;99.90
40638;DHT22;26336;44.696;10.622;2022-10-31T21:29:19;16.30;99.90
40638;DHT22;26336;44.696;10.622;2022-10-31T21:32:23;16.40;99.90
40638;DHT22;26336;44.696;10.622;2022-10-31T21:35:27;16.40;99.90
40638;DHT22;26336;44.696;10.622;2022-10-31T21:38:31;16.40;99.90